Time;durP1;ratioP1;P1;durP2;ratioP2;P2;SDS_P1;SDS_P2;PMS_P1;PMS_P2;Temp;Humidity;BMP_temperature;BMP_pressure;BME280_temperature;BME280_humidity;BME280_pressure;Samples;Min_cycle;Max_cycle;Signal;HPM_P1;HPM_P2
2023/01/04 00:01:12;;;;;;;1.40;0.30;;;11.50;99.90;;;;;;4917715;29;20032;-91
2023/01/04 00:03:38;;;;;;;0.38;0.22;;;11.50;99.90;;;;;;4917294;29;20032;-89
2023/01/04 00:06:06;;;;;;;0.90;0.45;;;11.50;99.90;;;;;;4922612;29;20036;-90
2023/01/04 00:08:32;;;;;;;0.65;0.45;;;11.50;99.90;;;;;;4937879;29;20015;-89
2023/01/04 00:11:19;;;;;;;1.85;0.60;;;11.40;99.90;;;;;;4936058;29;20032;-90
2023/01/04 00:13:47;;;;;;;4.10;0.73;;;11.40;99.90;;;;;;4942936;29;20086;-90
2023/01/04 00:16:15;;;;;;;1.58;0.52;;;11.40;99.90;;;;;;4935940;29;20055;-90
2023/01/04 00:18:42;;;;;;;2.05;0.45;;;11.40;99.90;;;;;;4936001;29;20024;-90
2023/01/04 00:21:15;;;;;;;2.65;0.45;;;11.40;99.90;;;;;;4935747;29;20043;-90
2023/01/04 00:23:42;;;;;;;0.82;0.25;;;11.40;99.90;;;;;;4935778;29;20058;-90
2023/01/04 00:26:10;;;;;;;0.10;0.10;;;11.40;99.90;;;;;;4935122;29;20046;-90
2023/01/04 00:28:37;;;;;;;0.85;0.20;;;11.40;99.90;;;;;;4935337;29;20031;-90
2023/01/04 00:31:08;;;;;;;0.10;0.10;;;11.40;99.90;;;;;;4935670;29;20466;-90
2023/01/04 00:33:35;;;;;;;0.63;0.32;;;11.40;99.90;;;;;;4935757;29;20035;-91
2023/01/04 00:36:10;;;;;;;1.65;0.22;;;11.40;99.90;;;;;;4951611;29;20032;-91
2023/01/04 00:38:36;;;;;;;1.10;0.30;;;11.50;99.90;;;;;;4935627;29;20581;-91
2023/01/04 00:41:03;;;;;;;0.22;0.20;;;11.50;99.90;;;;;;4951385;29;20027;-92
2023/01/04 00:43:29;;;;;;;0.40;0.30;;;11.50;99.90;;;;;;4935258;29;20083;-92
2023/01/04 00:45:55;;;;;;;0.32;0.30;;;11.50;99.90;;;;;;4935402;29;20517;-90
2023/01/04 00:48:21;;;;;;;1.65;0.32;;;11.50;99.90;;;;;;4936238;29;20119;-90
2023/01/04 00:50:47;;;;;;;1.08;0.35;;;11.50;99.90;;;;;;4935465;29;20035;-90
2023/01/04 00:53:14;;;;;;;0.93;0.65;;;11.50;99.90;;;;;;4951435;29;20036;-89
2023/01/04 00:55:39;;;;;;;0.10;0.10;;;11.50;99.90;;;;;;4935501;29;20023;-90
2023/01/04 00:58:06;;;;;;;1.15;0.45;;;11.50;99.90;;;;;;4935382;29;20061;-88
2023/01/04 01:00:32;;;;;;;5.80;1.08;;;11.50;99.90;;;;;;4935439;29;20028;-90
2023/01/04 01:02:57;;;;;;;1.85;0.47;;;11.50;99.90;;;;;;4935378;29;20034;-90
2023/01/04 01:05:23;;;;;;;4.82;0.55;;;11.50;99.90;;;;;;4935387;29;20028;-88
2023/01/04 01:07:48;;;;;;;0.98;0.30;;;11.50;99.90;;;;;;4936474;29;20040;-88
2023/01/04 01:10:14;;;;;;;1.35;0.50;;;11.50;99.90;;;;;;4951120;29;20087;-89
2023/01/04 01:12:40;;;;;;;0.65;0.40;;;11.50;99.90;;;;;;4935674;29;20106;-90
2023/01/04 01:15:06;;;;;;;0.25;0.25;;;11.50;99.90;;;;;;4935290;29;20114;-88
2023/01/04 01:17:33;;;;;;;1.25;0.40;;;11.50;99.90;;;;;;4940938;29;20139;-89
2023/01/04 01:19:59;;;;;;;1.13;0.15;;;11.50;99.90;;;;;;4939200;29;20035;-90
2023/01/04 01:22:24;;;;;;;0.98;0.20;;;11.50;99.90;;;;;;4948268;29;20048;-89
2023/01/04 01:24:50;;;;;;;0.75;0.32;;;11.50;99.90;;;;;;4945914;29;20035;-89
2023/01/04 01:27:16;;;;;;;0.82;0.22;;;11.50;99.90;;;;;;4950585;29;20090;-90
2023/01/04 01:29:42;;;;;;;1.83;0.25;;;11.50;99.90;;;;;;4942958;29;20470;-90
2023/01/04 01:32:08;;;;;;;1.52;0.70;;;11.50;99.90;;;;;;4949897;29;20038;-90
2023/01/04 01:34:33;;;;;;;0.40;0.30;;;11.50;99.90;;;;;;4944332;29;20035;-90
2023/01/04 01:36:59;;;;;;;0.28;0.20;;;11.50;99.90;;;;;;4941203;29;20112;-90
2023/01/04 01:39:25;;;;;;;1.15;0.20;;;11.40;99.90;;;;;;4943434;29;20497;-89
2023/01/04 01:41:50;;;;;;;1.42;0.50;;;11.40;99.90;;;;;;4949636;29;20091;-90
2023/01/04 01:44:41;;;;;;;0.85;0.50;;;11.40;99.90;;;;;;4944048;29;20055;-90
2023/01/04 01:47:16;;;;;;;1.27;0.20;;;11.40;99.90;;;;;;4938741;29;20062;-90
2023/01/04 01:49:45;;;;;;;1.50;0.20;;;11.40;99.90;;;;;;4938333;29;20126;-89
2023/01/04 01:52:17;;;;;;;0.80;0.38;;;11.40;99.90;;;;;;4947592;29;20482;-89
2023/01/04 01:54:52;;;;;;;1.10;0.28;;;11.40;99.90;;;;;;4944926;29;20024;-90
2023/01/04 01:57:23;;;;;;;0.30;0.30;;;11.40;99.90;;;;;;4948204;29;20131;-89
2023/01/04 01:59:50;;;;;;;;;;;11.40;99.90;;;;;;4939026;29;20143;-90
2023/01/04 02:02:16;;;;;;;1.50;0.43;;;11.40;99.90;;;;;;4938185;29;19962;-90
2023/01/04 02:04:46;;;;;;;0.40;0.40;;;11.40;99.90;;;;;;4954538;29;20470;-90
2023/01/04 02:07:17;;;;;;;0.40;0.30;;;11.50;99.90;;;;;;4938415;29;20043;-89
2023/01/04 02:09:44;;;;;;;1.17;0.60;;;11.40;99.90;;;;;;4938315;29;20110;-90
2023/01/04 02:12:11;;;;;;;0.98;0.40;;;11.40;99.90;;;;;;4938345;29;20062;-91
2023/01/04 02:14:37;;;;;;;0.63;0.20;;;11.40;99.90;;;;;;4938334;29;20048;-90
2023/01/04 02:17:24;;;;;;;0.55;0.40;;;11.40;99.90;;;;;;4937973;29;20024;-88
2023/01/04 02:20:12;;;;;;;0.30;0.20;;;11.40;99.90;;;;;;4938028;29;20082;-88
2023/01/04 02:22:56;;;;;;;0.15;0.10;;;11.40;99.90;;;;;;4953903;29;20525;-89
2023/01/04 02:25:55;;;;;;;1.52;0.22;;;11.40;99.90;;;;;;4952731;29;20038;-89
2023/01/04 02:28:52;;;;;;;0.30;0.20;;;11.40;99.90;;;;;;4947761;29;20328;-91
2023/01/04 02:31:41;;;;;;;0.30;0.10;;;11.40;99.90;;;;;;4950313;29;20114;-89
2023/01/04 02:34:41;;;;;;;0.10;0.08;;;11.40;99.90;;;;;;4951963;29;20557;-90
2023/01/04 02:37:11;;;;;;;0.32;0.08;;;11.30;99.90;;;;;;4926429;29;20558;-90
2023/01/04 02:40:11;;;;;;;0.30;0.10;;;11.30;99.90;;;;;;4937175;29;20032;-89
2023/01/04 02:46:01;;;;;;;0.40;0.20;;;11.30;99.90;;;;;;4938204;29;20034;-89
2023/01/04 02:51:32;;;;;;;0.10;0.10;;;11.40;99.90;;;;;;4938011;29;20123;-89
2023/01/04 02:54:03;;;;;;;0.25;0.20;;;11.40;99.90;;;;;;4927519;29;20115;-89
2023/01/04 02:56:53;;;;;;;0.93;0.13;;;11.30;99.90;;;;;;4936027;29;20481;-89
2023/01/04 02:59:50;;;;;;;0.80;0.32;;;11.40;99.90;;;;;;4950921;29;20074;-89
2023/01/04 03:08:28;;;;;;;;;;;11.40;99.90;;;;;;4938114;29;20039;-89
2023/01/04 03:12:30;;;;;;;0.63;0.20;;;11.40;99.90;;;;;;4951894;28;19911;-90
2023/01/04 03:13:59;;;;;;;1.27;0.20;;;11.40;99.90;;;;;;4937242;29;20024;-90
2023/01/04 03:16:25;;;;;;;0.70;0.03;;;11.30;99.90;;;;;;4936455;29;20094;-90
2023/01/04 03:18:55;;;;;;;0.10;0.03;;;11.30;99.90;;;;;;4950807;29;20035;-91
2023/01/04 03:21:23;;;;;;;1.40;0.13;;;11.30;99.90;;;;;;4952307;28;20060;-90
2023/01/04 03:35:49;;;;;;;0.70;0.13;;;11.40;99.90;;;;;;4937845;29;20126;-90
2023/01/04 03:50:37;;;;;;;0.38;0.08;;;11.40;99.90;;;;;;4937210;29;20039;-89
2023/01/04 03:53:06;;;;;;;0.10;0.05;;;11.40;99.90;;;;;;4951946;28;20505;-90
2023/01/04 03:55:34;;;;;;;1.02;0.20;;;11.40;99.90;;;;;;4951960;29;20023;-89
2023/01/04 03:58:00;;;;;;;0.80;0.20;;;11.40;99.90;;;;;;4951633;29;20027;-88
2023/01/04 04:00:27;;;;;;;0.70;0.20;;;11.40;99.90;;;;;;4950835;28;20040;-90
2023/01/04 04:02:52;;;;;;;1.20;0.20;;;11.40;99.90;;;;;;4951084;29;20515;-90
2023/01/04 04:08:25;;;;;;;1.55;0.30;;;11.40;99.90;;;;;;4937190;29;20083;-89
2023/01/04 04:10:52;;;;;;;1.17;0.30;;;11.40;99.90;;;;;;4951519;29;20086;-89
2023/01/04 04:13:17;;;;;;;0.65;0.15;;;11.40;99.90;;;;;;4951474;29;20028;-89
2023/01/04 04:15:43;;;;;;;3.17;0.52;;;11.40;99.90;;;;;;4951699;28;20179;-90
2023/01/04 04:18:09;;;;;;;1.75;0.15;;;11.40;99.90;;;;;;4951539;29;20036;-89
2023/01/04 04:20:35;;;;;;;1.75;0.30;;;11.50;99.90;;;;;;4951162;28;20079;-89
2023/01/04 04:23:01;;;;;;;0.60;0.22;;;11.50;99.90;;;;;;4951875;29;20115;-88
2023/01/04 04:25:27;;;;;;;1.00;0.20;;;11.40;99.90;;;;;;4951214;28;20063;-89
2023/01/04 04:27:52;;;;;;;1.27;0.28;;;11.50;99.90;;;;;;4951067;28;20039;-89
2023/01/04 04:30:18;;;;;;;4.03;0.60;;;11.40;99.90;;;;;;4951143;29;20389;-90
2023/01/04 04:32:44;;;;;;;4.97;1.00;;;11.40;99.90;;;;;;4951235;29;20032;-89
2023/01/04 04:35:10;;;;;;;7.18;1.35;;;11.40;99.90;;;;;;4951175;28;20020;-89
2023/01/04 04:37:36;;;;;;;8.43;1.67;;;11.40;99.90;;;;;;4951212;29;20631;-89
2023/01/04 04:40:05;;;;;;;4.20;0.80;;;11.40;99.90;;;;;;4951008;29;20027;-88
2023/01/04 04:42:30;;;;;;;4.85;0.90;;;11.40;99.90;;;;;;4950540;29;20035;-88
2023/01/04 04:44:56;;;;;;;5.72;1.33;;;11.40;99.90;;;;;;4950823;29;20496;-88
2023/01/04 04:47:22;;;;;;;10.27;1.00;;;11.30;99.90;;;;;;4950973;28;20495;-88
2023/01/04 04:49:47;;;;;;;3.38;0.52;;;11.30;99.90;;;;;;4951141;29;20032;-88
2023/01/04 04:52:13;;;;;;;12.55;1.45;;;11.20;99.90;;;;;;4951043;29;20034;-88
2023/01/04 04:54:39;;;;;;;10.13;0.77;;;11.20;99.90;;;;;;4952150;29;20034;-87
2023/01/04 04:57:05;;;;;;;7.03;0.90;;;11.10;99.90;;;;;;4952953;29;20422;-88
2023/01/04 04:59:31;;;;;;;10.02;1.02;;;11.00;99.90;;;;;;4952110;29;20027;-87
2023/01/04 05:01:56;;;;;;;6.13;1.15;;;11.00;99.90;;;;;;4951848;29;20027;-87
2023/01/04 05:04:22;;;;;;;8.20;1.20;;;10.90;99.90;;;;;;4951335;28;20020;-87
2023/01/04 05:06:51;;;;;;;5.05;0.90;;;10.80;99.90;;;;;;4951400;29;20044;-87
2023/01/04 05:09:17;;;;;;;14.48;2.15;;;10.80;99.90;;;;;;4950809;29;20066;-87
2023/01/04 05:14:27;;;;;;;5.60;1.30;;;10.70;99.90;;;;;;4943571;29;20389;-88
2023/01/04 05:16:53;;;;;;;11.80;1.88;;;10.60;99.90;;;;;;4955438;29;20031;-86
2023/01/04 05:19:19;;;;;;;8.70;1.55;;;10.50;99.90;;;;;;4957719;29;20032;-88
2023/01/04 05:21:44;;;;;;;12.40;1.55;;;10.40;99.90;;;;;;4958219;28;20051;-88
2023/01/04 05:24:11;;;;;;;11.90;0.90;;;10.40;99.90;;;;;;4958257;29;20071;-86
2023/01/04 05:26:37;;;;;;;8.25;1.65;;;10.30;99.90;;;;;;4956504;29;20043;-88
2023/01/04 05:29:03;;;;;;;11.35;2.72;;;10.30;99.90;;;;;;4954409;29;20481;-88
2023/01/04 05:31:29;;;;;;;9.02;1.70;;;10.30;99.90;;;;;;4954401;29;20032;-88
2023/01/04 05:33:54;;;;;;;20.33;2.13;;;10.30;99.90;;;;;;4938038;29;20023;-88
2023/01/04 05:36:20;;;;;;;14.18;1.85;;;10.30;99.90;;;;;;4954084;28;20470;-88
2023/01/04 05:38:46;;;;;;;17.50;2.45;;;10.30;99.90;;;;;;4952680;29;20047;-88
2023/01/04 05:43:56;;;;;;;19.35;2.08;;;10.30;99.90;;;;;;4939442;29;20487;-88
2023/01/04 05:46:21;;;;;;;16.75;2.63;;;10.30;99.90;;;;;;4952645;29;20035;-88
2023/01/04 05:48:47;;;;;;;11.50;2.20;;;10.40;99.90;;;;;;4953431;29;20024;-87
2023/01/04 05:51:12;;;;;;;15.15;2.10;;;10.40;99.90;;;;;;4953149;29;20035;-88
2023/01/04 05:53:39;;;;;;;12.48;1.88;;;10.50;99.90;;;;;;4953262;29;20027;-88
2023/01/04 05:56:05;;;;;;;10.73;1.92;;;10.40;99.90;;;;;;4953886;29;20083;-88
2023/01/04 05:58:30;;;;;;;14.95;2.42;;;10.50;99.90;;;;;;4953442;29;20035;-89
2023/01/04 06:00:56;;;;;;;22.05;2.95;;;10.50;99.90;;;;;;4953505;28;20078;-86
2023/01/04 06:03:22;;;;;;;16.40;1.90;;;10.40;99.90;;;;;;4953405;29;20039;-88
2023/01/04 06:05:51;;;;;;;12.93;1.98;;;10.50;99.90;;;;;;4953070;29;20032;-88
2023/01/04 06:08:16;;;;;;;14.65;2.10;;;10.40;99.90;;;;;;4953333;29;20529;-90
2023/01/04 06:10:42;;;;;;;14.20;2.67;;;10.40;99.90;;;;;;4953463;29;20031;-88
2023/01/04 06:13:08;;;;;;;11.60;1.77;;;10.40;99.90;;;;;;4953746;29;20028;-89
2023/01/04 06:15:33;;;;;;;11.13;1.75;;;10.40;99.90;;;;;;4953805;29;20536;-89
2023/01/04 06:17:59;;;;;;;9.65;1.88;;;10.50;99.90;;;;;;4953294;29;20462;-88
2023/01/04 06:20:25;;;;;;;10.70;2.20;;;10.50;99.90;;;;;;4952820;29;20055;-88
2023/01/04 06:22:51;;;;;;;13.13;1.70;;;10.50;99.90;;;;;;4921285;29;20032;-88
2023/01/04 06:25:17;;;;;;;18.65;2.53;;;10.50;99.90;;;;;;4920761;29;20481;-89
2023/01/04 06:27:42;;;;;;;18.02;2.42;;;10.50;99.90;;;;;;4921692;29;20035;-89
2023/01/04 06:30:08;;;;;;;19.65;2.67;;;10.50;99.90;;;;;;4921534;29;20027;-89
2023/01/04 06:32:34;;;;;;;18.92;3.38;;;10.50;99.90;;;;;;4921344;29;20035;-91
2023/01/04 06:35:00;;;;;;;16.50;2.08;;;10.40;99.90;;;;;;4921409;29;20082;-89
2023/01/04 06:37:26;;;;;;;21.42;3.10;;;10.50;99.90;;;;;;4921181;29;20036;-90
2023/01/04 06:39:51;;;;;;;16.08;2.70;;;10.40;99.90;;;;;;4921546;29;20110;-89
2023/01/04 06:45:01;;;;;;;23.88;2.63;;;10.50;99.90;;;;;;4938652;29;20046;-90
2023/01/04 06:47:27;;;;;;;17.00;3.28;;;10.50;99.90;;;;;;4920894;29;20473;-89
2023/01/04 06:49:53;;;;;;;24.15;2.92;;;10.40;99.90;;;;;;4921168;29;20024;-88
2023/01/04 06:52:19;;;;;;;19.45;2.08;;;10.40;99.90;;;;;;4921250;29;20042;-89
2023/01/04 06:54:45;;;;;;;22.92;3.83;;;10.40;99.90;;;;;;4921010;29;20028;-89
2023/01/04 06:57:11;;;;;;;27.27;3.47;;;10.40;99.90;;;;;;4920995;29;20036;-89
2023/01/04 06:59:36;;;;;;;25.20;3.42;;;10.40;99.90;;;;;;4921107;29;20032;-89
2023/01/04 07:02:02;;;;;;;23.73;4.72;;;10.40;99.90;;;;;;4921031;29;20119;-89
2023/01/04 07:04:27;;;;;;;31.98;5.47;;;10.40;99.90;;;;;;4921167;29;20038;-89
2023/01/04 07:06:53;;;;;;;30.30;3.10;;;10.40;99.90;;;;;;4920674;29;20605;-89
2023/01/04 07:09:19;;;;;;;19.58;2.95;;;10.40;99.90;;;;;;4921178;29;20032;-88
2023/01/04 07:11:44;;;;;;;30.90;5.40;;;10.40;99.90;;;;;;4920749;29;20488;-89
2023/01/04 07:14:10;;;;;;;25.65;3.90;;;10.50;99.90;;;;;;4920587;29;20512;-89
2023/01/04 07:16:36;;;;;;;26.38;3.28;;;10.50;99.90;;;;;;4920772;29;20130;-89
2023/01/04 07:19:01;;;;;;;15.38;2.78;;;10.50;99.90;;;;;;4937476;29;20094;-88
2023/01/04 07:21:28;;;;;;;19.45;3.05;;;10.50;99.90;;;;;;4920144;29;20143;-89
2023/01/04 07:23:54;;;;;;;24.35;2.78;;;10.50;99.90;;;;;;4920401;29;20039;-88
2023/01/04 07:26:20;;;;;;;24.15;4.47;;;10.50;99.90;;;;;;4920435;29;20485;-89
2023/01/04 07:31:30;;;;;;;23.00;3.35;;;10.50;99.90;;;;;;4937582;29;20190;-89
2023/01/04 07:33:55;;;;;;;25.98;3.80;;;10.40;99.90;;;;;;4935667;29;20023;-89
2023/01/04 07:36:21;;;;;;;16.08;3.03;;;10.40;99.90;;;;;;4936765;29;20031;-88
2023/01/04 07:38:47;;;;;;;20.17;3.20;;;10.40;99.90;;;;;;4935539;29;20035;-88
2023/01/04 07:41:15;;;;;;;21.30;3.20;;;10.40;99.90;;;;;;4935416;29;20027;-89
2023/01/04 07:43:44;;;;;;;28.33;2.85;;;10.40;99.90;;;;;;4919294;29;20024;-88
2023/01/04 07:46:10;;;;;;;14.35;2.35;;;10.40;99.90;;;;;;4919247;29;20024;-89
2023/01/04 07:48:36;;;;;;;21.63;3.30;;;10.40;99.90;;;;;;4919049;29;20038;-88
2023/01/04 07:51:02;;;;;;;24.63;2.90;;;10.40;99.90;;;;;;4919513;29;20020;-87
2023/01/04 07:53:27;;;;;;;19.02;2.47;;;10.30;99.90;;;;;;4935366;29;20544;-87
2023/01/04 07:55:57;;;;;;;18.40;4.00;;;10.30;99.90;;;;;;4934943;29;20111;-87
2023/01/04 07:58:24;;;;;;;17.40;3.08;;;10.30;99.90;;;;;;4917364;29;20036;-87
2023/01/04 08:00:50;;;;;;;23.63;3.50;;;10.30;99.90;;;;;;4911605;29;20032;-87
2023/01/04 08:03:15;;;;;;;29.17;3.22;;;10.30;99.90;;;;;;4936550;29;20035;-88
2023/01/04 08:05:41;;;;;;;22.92;4.50;;;10.30;99.90;;;;;;4935292;29;20028;-87
2023/01/04 08:08:07;;;;;;;17.55;3.05;;;10.30;99.90;;;;;;4919688;29;20039;-87
2023/01/04 08:10:33;;;;;;;15.77;3.38;;;10.20;99.90;;;;;;4935204;29;20047;-88
2023/01/04 08:12:59;;;;;;;16.77;2.95;;;10.20;99.90;;;;;;4918825;29;20058;-87
2023/01/04 08:15:25;;;;;;;21.90;3.40;;;10.30;99.90;;;;;;4934329;29;20023;-87
2023/01/04 08:17:51;;;;;;;23.25;3.90;;;10.20;99.90;;;;;;4908400;29;20028;-87
2023/01/04 08:20:18;;;;;;;20.15;3.22;;;10.20;99.90;;;;;;4934641;29;20043;-87
2023/01/04 08:22:43;;;;;;;22.58;2.42;;;10.20;99.90;;;;;;4934641;29;20070;-87
2023/01/04 08:25:09;;;;;;;19.80;3.22;;;10.20;99.90;;;;;;4934688;29;20443;-87
2023/01/04 08:27:35;;;;;;;14.55;2.40;;;10.20;99.90;;;;;;4934560;29;20496;-87
2023/01/04 08:30:00;;;;;;;32.40;6.15;;;10.20;99.90;;;;;;4934717;29;20020;-88
2023/01/04 08:32:26;;;;;;;32.03;5.63;;;10.20;99.90;;;;;;4918326;29;20059;-88
2023/01/04 08:34:53;;;;;;;23.27;5.10;;;10.20;99.90;;;;;;4934748;29;20024;-88
2023/01/04 08:37:18;;;;;;;27.65;4.78;;;10.20;99.90;;;;;;4919364;29;20028;-88
2023/01/04 08:39:44;;;;;;;24.08;4.45;;;10.20;99.90;;;;;;4934599;29;20024;-88
2023/01/04 08:42:10;;;;;;;19.55;3.63;;;10.20;99.90;;;;;;4935016;29;20095;-87
2023/01/04 08:44:36;;;;;;;34.17;6.35;;;10.20;99.90;;;;;;4935265;29;20031;-88
2023/01/04 08:47:02;;;;;;;24.70;5.65;;;10.20;99.90;;;;;;4934534;29;20036;-88
2023/01/04 08:49:28;;;;;;;29.80;5.43;;;10.20;99.90;;;;;;4935414;29;20031;-89
2023/01/04 08:51:53;;;;;;;31.30;5.22;;;10.20;99.90;;;;;;4934208;29;20028;-88
2023/01/04 08:54:19;;;;;;;20.92;3.45;;;10.20;99.90;;;;;;4934729;29;20478;-88
2023/01/04 08:56:45;;;;;;;23.65;4.10;;;10.10;99.90;;;;;;4921499;29;20032;-88
2023/01/04 08:59:12;;;;;;;20.92;3.60;;;10.20;99.90;;;;;;4927680;29;20031;-87
2023/01/04 09:01:39;;;;;;;21.88;3.35;;;10.20;99.90;;;;;;4941527;29;20031;-88
2023/01/04 09:04:05;;;;;;;20.45;3.17;;;10.20;99.90;;;;;;4924193;29;20031;-89
2023/01/04 09:06:31;;;;;;;19.73;3.58;;;10.20;99.90;;;;;;4913965;29;20058;-90
2023/01/04 09:08:57;;;;;;;23.73;3.10;;;10.20;99.90;;;;;;4908117;29;20068;-87
2023/01/04 09:11:24;;;;;;;22.83;4.13;;;10.20;99.90;;;;;;4919147;29;20016;-88
2023/01/04 09:13:56;;;;;;;16.98;3.15;;;10.20;99.90;;;;;;4918875;29;20028;-90
2023/01/04 09:16:22;;;;;;;23.73;3.65;;;10.20;99.90;;;;;;4934790;29;20089;-89
2023/01/04 09:18:48;;;;;;;22.13;3.10;;;10.10;99.90;;;;;;4934724;29;20035;-89
2023/01/04 09:21:17;;;;;;;19.45;3.25;;;10.10;99.90;;;;;;4918632;29;20036;-90
2023/01/04 09:23:43;;;;;;;19.60;3.25;;;10.20;99.90;;;;;;4934504;29;20039;-90
2023/01/04 09:26:21;;;;;;;18.45;3.70;;;10.10;99.90;;;;;;4918721;29;20035;-89
2023/01/04 09:28:55;;;;;;;21.45;4.10;;;10.10;99.90;;;;;;4918722;29;20028;-90
2023/01/04 09:31:24;;;;;;;17.27;2.78;;;10.10;99.90;;;;;;4934241;29;20020;-88
2023/01/04 09:33:50;;;;;;;22.52;4.15;;;10.20;99.90;;;;;;4918430;29;20521;-88
2023/01/04 09:36:17;;;;;;;25.67;3.65;;;10.20;99.90;;;;;;4934421;29;20027;-89
2023/01/04 09:38:43;;;;;;;27.40;3.65;;;10.20;99.90;;;;;;4910858;29;20122;-90
2023/01/04 09:41:29;;;;;;;18.85;3.50;;;10.20;99.90;;;;;;4919507;29;20062;-89
2023/01/04 09:44:03;;;;;;;16.23;3.13;;;10.30;99.90;;;;;;4934696;29;20111;-88
2023/01/04 09:46:36;;;;;;;30.20;3.33;;;10.20;99.90;;;;;;4937331;29;20052;-91
2023/01/04 09:49:18;;;;;;;24.75;3.60;;;10.30;99.90;;;;;;4919082;29;20579;-89
2023/01/04 09:52:10;;;;;;;27.33;3.72;;;10.30;99.90;;;;;;4917659;29;20523;-87
2023/01/04 09:54:35;;;;;;;24.88;3.05;;;10.20;99.90;;;;;;4915671;29;20070;-89
2023/01/04 09:57:02;;;;;;;20.67;3.53;;;10.20;99.90;;;;;;4913930;29;20015;-89
2023/01/04 09:59:31;;;;;;;23.08;3.80;;;10.20;99.90;;;;;;4919939;29;20023;-90
2023/01/04 10:02:07;;;;;;;27.88;5.35;;;10.20;99.90;;;;;;4920984;29;20024;-90
2023/01/04 10:04:46;;;;;;;22.17;3.03;;;10.20;99.90;;;;;;4921312;29;20028;-88
2023/01/04 10:07:32;;;;;;;21.65;2.95;;;10.20;99.90;;;;;;4921278;29;20087;-89
2023/01/04 10:09:59;;;;;;;23.58;3.17;;;10.20;99.90;;;;;;4921340;29;20086;-90
2023/01/04 10:12:42;;;;;;;26.25;3.33;;;10.20;99.90;;;;;;4936747;29;20035;-89
2023/01/04 10:15:29;;;;;;;13.15;2.28;;;10.20;99.90;;;;;;4921146;29;20028;-89
2023/01/04 10:18:15;;;;;;;20.67;3.22;;;10.20;99.90;;;;;;4921431;29;20062;-90
2023/01/04 10:20:53;;;;;;;22.77;3.42;;;10.20;99.90;;;;;;4911345;29;20052;-89
2023/01/04 10:23:50;;;;;;;29.60;3.40;;;10.20;99.90;;;;;;4937487;29;20115;-89
2023/01/04 10:26:33;;;;;;;16.13;2.88;;;10.30;99.90;;;;;;4936424;29;20035;-89
2023/01/04 10:29:26;;;;;;;18.77;2.67;;;10.30;99.90;;;;;;4910709;29;20075;-89
2023/01/04 10:32:04;;;;;;;23.10;3.08;;;10.40;99.90;;;;;;4917103;29;20104;-90
2023/01/04 10:34:43;;;;;;;19.00;3.20;;;10.40;99.90;;;;;;4937119;29;20425;-90
2023/01/04 10:37:20;;;;;;;15.25;2.50;;;10.50;99.90;;;;;;4936583;29;20024;-90
2023/01/04 10:39:51;;;;;;;19.63;3.95;;;10.50;99.90;;;;;;4935347;29;20486;-89
2023/01/04 10:42:17;;;;;;;16.67;2.55;;;10.60;99.90;;;;;;4918101;29;20393;-90
2023/01/04 10:44:53;;;;;;;15.73;2.30;;;10.60;99.90;;;;;;4936939;29;20119;-89
2023/01/04 10:47:29;;;;;;;16.95;3.72;;;10.70;99.90;;;;;;4919220;29;20050;-90
2023/01/04 10:50:03;;;;;;;13.68;2.97;;;10.80;99.90;;;;;;4912905;29;20036;-88
2023/01/04 10:52:46;;;;;;;20.23;3.00;;;10.80;99.90;;;;;;4936998;29;20102;-89
2023/01/04 10:55:22;;;;;;;25.48;4.13;;;10.90;99.90;;;;;;4919659;29;20034;-89
2023/01/04 10:57:51;;;;;;;12.93;3.10;;;11.10;99.90;;;;;;4935834;29;20027;-88
2023/01/04 11:00:25;;;;;;;11.30;2.90;;;11.20;99.90;;;;;;4921621;29;20026;-88
2023/01/04 11:03:17;;;;;;;19.08;2.88;;;11.30;99.90;;;;;;4919260;29;20092;-88
2023/01/04 11:06:07;;;;;;;19.90;3.15;;;11.40;99.90;;;;;;4916510;29;20031;-90
2023/01/04 11:08:54;;;;;;;11.80;2.00;;;11.30;99.90;;;;;;4917754;29;20395;-92
2023/01/04 11:11:32;;;;;;;21.90;3.30;;;11.30;99.90;;;;;;4912377;29;20023;-91
2023/01/04 11:13:59;;;;;;;16.50;3.17;;;11.20;99.90;;;;;;4936333;29;20024;-90
2023/01/04 11:16:25;;;;;;;19.95;2.72;;;11.20;99.90;;;;;;4937359;29;20016;-90
2023/01/04 11:18:51;;;;;;;8.57;1.92;;;11.20;99.90;;;;;;4920391;29;20038;-90
2023/01/04 11:21:24;;;;;;;21.73;3.03;;;11.10;99.90;;;;;;4942090;29;20082;-90
2023/01/04 11:23:49;;;;;;;18.10;4.22;;;11.10;99.90;;;;;;4952464;29;20087;-89
2023/01/04 11:26:20;;;;;;;18.73;3.63;;;11.10;99.90;;;;;;4936463;29;20031;-91
2023/01/04 11:28:59;;;;;;;24.00;3.63;;;11.10;99.90;;;;;;4937318;29;20027;-90
2023/01/04 11:31:35;;;;;;;21.48;3.05;;;11.10;99.90;;;;;;4936270;29;20024;-90
2023/01/04 11:34:02;;;;;;;18.42;3.47;;;11.00;99.90;;;;;;4934601;29;20059;-89
2023/01/04 11:36:34;;;;;;;32.97;4.38;;;11.00;99.90;;;;;;4957058;29;20092;-91
2023/01/04 11:39:01;;;;;;;20.92;3.47;;;11.00;99.90;;;;;;4936469;29;20044;-91
2023/01/04 11:41:27;;;;;;;16.05;2.63;;;11.00;99.90;;;;;;4931725;29;20137;-90
2023/01/04 11:43:58;;;;;;;32.78;4.90;;;11.00;99.90;;;;;;4943057;29;20028;-89
2023/01/04 11:46:25;;;;;;;32.85;4.07;;;11.00;99.90;;;;;;4940085;29;20477;-89
2023/01/04 11:48:52;;;;;;;32.35;5.47;;;11.00;99.90;;;;;;4930669;29;20032;-89
2023/01/04 11:51:41;;;;;;;41.03;7.40;;;11.00;99.90;;;;;;4937305;29;20043;-89
2023/01/04 11:54:12;;;;;;;34.17;5.70;;;11.00;99.90;;;;;;4935690;29;20028;-89
2023/01/04 11:56:39;;;;;;;37.15;5.28;;;11.00;99.90;;;;;;4938307;29;20035;-90
2023/01/04 11:59:07;;;;;;;26.83;3.97;;;11.00;99.90;;;;;;4952509;29;20063;-90
2023/01/04 12:01:36;;;;;;;27.27;5.35;;;10.90;99.90;;;;;;4936917;29;20034;-90
2023/01/04 12:04:03;;;;;;;23.98;4.05;;;10.90;99.90;;;;;;4954459;29;20066;-90
2023/01/04 12:06:39;;;;;;;23.70;3.92;;;10.90;99.90;;;;;;4952626;29;20114;-91
2023/01/04 12:09:13;;;;;;;18.05;3.72;;;10.80;99.90;;;;;;4950034;29;20055;-91
2023/01/04 12:11:42;;;;;;;31.83;5.93;;;10.80;99.90;;;;;;4943693;29;20032;-89
2023/01/04 12:14:33;;;;;;;24.40;4.25;;;10.80;99.90;;;;;;4925396;29;20383;-89
2023/01/04 12:17:29;;;;;;;23.90;3.30;;;10.80;99.90;;;;;;4931287;29;20036;-90
2023/01/04 12:19:56;;;;;;;24.75;3.50;;;10.80;99.90;;;;;;4952269;29;20106;-91
2023/01/04 12:22:36;;;;;;;22.23;3.40;;;10.80;99.90;;;;;;4935322;29;20219;-89
2023/01/04 12:25:26;;;;;;;25.95;5.00;;;10.80;99.90;;;;;;4939695;29;20099;-90
2023/01/04 12:27:54;;;;;;;21.48;3.47;;;10.80;99.90;;;;;;4950523;28;20055;-90
2023/01/04 12:30:45;;;;;;;22.80;3.15;;;10.80;99.90;;;;;;4930813;29;20074;-91
2023/01/04 12:33:30;;;;;;;;;;;10.80;99.90;;;;;;4936175;29;20107;-90
2023/01/04 12:36:05;;;;;;;19.23;2.65;;;10.90;99.90;;;;;;4935785;29;19914;-89
2023/01/04 12:39:00;;;;;;;19.35;2.25;;;11.00;99.90;;;;;;4935296;29;20046;-90
2023/01/04 12:41:38;;;;;;;19.00;2.60;;;11.40;99.90;;;;;;4859909;29;20030;-91
2023/01/04 12:44:42;;;;;;;13.75;2.20;;;12.00;99.90;;;;;;4841113;29;20030;-92
2023/01/04 12:50:28;;;;;;;19.00;2.63;;;13.20;99.90;;;;;;4860027;29;20077;-91
2023/01/04 12:53:03;;;;;;;13.90;2.50;;;13.80;99.90;;;;;;4844120;29;20080;-89
2023/01/04 12:55:31;;;;;;;16.23;2.33;;;14.10;99.90;;;;;;4840896;29;20085;-90
2023/01/04 12:58:02;;;;;;;14.57;2.85;;;14.60;99.90;;;;;;4854885;29;20037;-91
2023/01/04 13:00:49;;;;;;;18.17;3.20;;;14.80;99.90;;;;;;4858227;29;20077;-92
2023/01/04 13:03:16;;;;;;;15.73;3.03;;;15.00;99.90;;;;;;4838435;29;20032;-90
2023/01/04 13:06:12;;;;;;;22.45;3.25;;;15.00;99.90;;;;;;4842238;29;20045;-91
2023/01/04 13:08:40;;;;;;;12.25;3.08;;;15.20;99.90;;;;;;4841441;29;20045;-90
2023/01/04 13:11:32;;;;;;;15.15;2.20;;;15.10;99.90;;;;;;4858167;29;20057;-93
2023/01/04 13:14:18;;;;;;;11.85;2.72;;;15.10;99.90;;;;;;4841850;29;20030;-92
2023/01/04 13:16:57;;;;;;;10.18;2.08;;;14.70;99.90;;;;;;4855404;29;20086;-90
2023/01/04 13:19:27;;;;;;;17.55;2.40;;;14.30;99.90;;;;;;4930627;29;20035;-91
2023/01/04 13:21:57;;;;;;;9.27;1.52;;;14.00;99.90;;;;;;4927923;29;20048;-90
2023/01/04 13:24:31;;;;;;;11.77;2.42;;;13.60;99.90;;;;;;4946862;29;20481;-92
2023/01/04 13:27:09;;;;;;;12.73;2.28;;;13.30;99.90;;;;;;4940391;29;20074;-92
2023/01/04 13:29:35;;;;;;;13.57;2.10;;;13.10;99.90;;;;;;4934761;29;20023;-92
2023/01/04 13:32:02;;;;;;;19.10;2.42;;;12.80;99.90;;;;;;4941554;29;20038;-92
2023/01/04 13:34:59;;;;;;;20.10;2.55;;;12.60;99.90;;;;;;4951042;28;20154;-93
2023/01/04 13:37:39;;;;;;;10.65;2.95;;;12.50;99.90;;;;;;4943357;29;20035;-91
2023/01/04 13:40:13;;;;;;;12.55;1.63;;;12.40;99.90;;;;;;4945765;29;20036;-91
2023/01/04 13:42:43;;;;;;;16.55;2.25;;;12.30;99.90;;;;;;4951473;29;20110;-91
2023/01/04 13:45:43;;;;;;;14.73;2.97;;;12.20;99.90;;;;;;4953330;29;20042;-93
2023/01/04 13:48:15;;;;;;;17.67;2.33;;;12.10;99.90;;;;;;4946648;29;20054;-93
2023/01/04 13:50:57;;;;;;;9.77;2.08;;;12.00;99.90;;;;;;4951064;29;20024;-92
2023/01/04 13:53:25;;;;;;;9.73;1.70;;;12.00;99.90;;;;;;4950500;29;20031;-93